עמוד ראשי
METAR-TAF:

METAR-TAF

שדות תעופה :

Fort Simpson, הטריטוריות הצפון-מערביות, קנדה

קו רוחב: 61-45N, קו אורך: 121-14W, גובה: 168מטר

תצפית מזג אוויר נוכחית

הדו"ח נערך לפני 1 שעות ו 19דקות, בשעה 20:00 UTC
רוח 10קשר מכיוון צפון/צפון-מערב עם משבים עד 17קשר , משתנה בין צפון-מערב ו צפון/צפון-מזרח
טמפרטורת 17 צלסיוס
לחות 27%
לחץ 1012 hPa
ראות: 24.1קילומטר
מעט עננים בגובה 6000רגל
מעט עננים בגובה 15000רגל
מעט עננים בגובה 25000רגל

METAR: CYFS 172000Z 33010G17KT 310V020 15SM FEW060 FEW150 FEW250 17/M02 A2989 RMK CU1AC1CI1 CU TR AC TR SLP130 DENSITY ALT 1000FT

זמן: 15:19 (21:19 UTC)

תחזית

הדו"ח נערך לפני 3 שעות ו 36דקות, בשעה 17:43 UTC
תחזית בתוקף מ 17 ב 18 UTC עד 18 ב 06 UTC
רוח 6קשר מכיוון צפון/צפון-מערב
ראות: 10קילומטר
מעט עננים בגובה 8000רגל
מ 18 ב 0300UTC
רוח 3קשר עם כיוונים משתנים
ראות: 10קילומטר
שמיים נקיים

TAF: CYFS 171743Z 1718/1806 34006KT P6SM FEW080 FM180300 VRB03KT P6SM SKC RMK NXT FCST BY 180000Z

תצפיות ותחזיות מזג אוויר לגבי יותר מ- 4,000 שדות תעופה ברחבי העולם. דוחות METAR ו- TAF.

התחנות הזמינות מסומנות בנקודות צהובות ואדומות על גבי המפה.

העבר את העכבר לנקודה הצבעונית על מנת לראות את שם התחנה.

לאחר מכן, לחץ כדי לראות את תוכן ואת תחזיות מזג האוויר.

כדי לשנות את המפה: לחץ על הכפתורים הירוקים עם הפלוס השחור כדי להתקרב; על הכפתור הירוק עם המקף כדי להתרחק; או בחיצים הירוקים למפות סמוכות.


METAR-TAF: